sensor_id;sensor_type;location;lat;lon;timestamp;temperature;humidity
13569;DHT22;6856;51.460;7.158;2023-08-24T00:01:40;23.10;54.60
13569;DHT22;6856;51.460;7.158;2023-08-24T00:04:14;23.00;54.70
13569;DHT22;6856;51.460;7.158;2023-08-24T00:06:49;23.00;54.70
13569;DHT22;6856;51.460;7.158;2023-08-24T00:09:23;23.00;54.80
13569;DHT22;6856;51.460;7.158;2023-08-24T00:11:59;23.00;54.70
13569;DHT22;6856;51.460;7.158;2023-08-24T00:14:33;22.90;55.00
13569;DHT22;6856;51.460;7.158;2023-08-24T00:17:07;22.90;54.90
13569;DHT22;6856;51.460;7.158;2023-08-24T00:19:41;22.90;55.00
13569;DHT22;6856;51.460;7.158;2023-08-24T00:22:15;22.90;55.00
13569;DHT22;6856;51.460;7.158;2023-08-24T00:24:50;22.80;55.00
13569;DHT22;6856;51.460;7.158;2023-08-24T00:27:26;22.80;55.10
13569;DHT22;6856;51.460;7.158;2023-08-24T00:30:03;22.80;55.00
13569;DHT22;6856;51.460;7.158;2023-08-24T00:32:38;22.80;55.20
13569;DHT22;6856;51.460;7.158;2023-08-24T00:35:12;22.80;55.20
13569;DHT22;6856;51.460;7.158;2023-08-24T00:37:47;22.70;55.20
13569;DHT22;6856;51.460;7.158;2023-08-24T00:40:21;22.70;55.20
13569;DHT22;6856;51.460;7.158;2023-08-24T00:42:57;22.70;55.20
13569;DHT22;6856;51.460;7.158;2023-08-24T00:45:32;22.70;55.30
13569;DHT22;6856;51.460;7.158;2023-08-24T00:48:06;22.70;55.40
13569;DHT22;6856;51.460;7.158;2023-08-24T00:50:41;22.60;55.50
13569;DHT22;6856;51.460;7.158;2023-08-24T00:53:15;22.60;55.40
13569;DHT22;6856;51.460;7.158;2023-08-24T00:55:51;22.60;55.50
13569;DHT22;6856;51.460;7.158;2023-08-24T00:58:28;22.60;55.50
13569;DHT22;6856;51.460;7.158;2023-08-24T01:01:03;22.50;55.40
13569;DHT22;6856;51.460;7.158;2023-08-24T01:03:38;22.50;55.50
13569;DHT22;6856;51.460;7.158;2023-08-24T01:06:12;22.50;55.60
13569;DHT22;6856;51.460;7.158;2023-08-24T01:08:47;22.50;55.60
13569;DHT22;6856;51.460;7.158;2023-08-24T01:11:30;22.50;55.70
13569;DHT22;6856;51.460;7.158;2023-08-24T01:14:23;22.40;55.80
13569;DHT22;6856;51.460;7.158;2023-08-24T01:17:05;22.40;55.80
13569;DHT22;6856;51.460;7.158;2023-08-24T01:19:45;22.40;55.70
13569;DHT22;6856;51.460;7.158;2023-08-24T01:22:32;22.40;56.30
13569;DHT22;6856;51.460;7.158;2023-08-24T01:25:13;22.30;55.90
13569;DHT22;6856;51.460;7.158;2023-08-24T01:27:51;22.30;55.70
13569;DHT22;6856;51.460;7.158;2023-08-24T01:30:26;22.30;55.80
13569;DHT22;6856;51.460;7.158;2023-08-24T01:33:02;22.30;55.80
13569;DHT22;6856;51.460;7.158;2023-08-24T01:35:38;22.30;55.90
13569;DHT22;6856;51.460;7.158;2023-08-24T01:38:12;22.20;55.90
13569;DHT22;6856;51.460;7.158;2023-08-24T01:40:55;22.20;55.90
13569;DHT22;6856;51.460;7.158;2023-08-24T01:43:37;22.20;56.10
13569;DHT22;6856;51.460;7.158;2023-08-24T01:46:17;22.20;56.00
13569;DHT22;6856;51.460;7.158;2023-08-24T01:48:58;22.20;56.10
13569;DHT22;6856;51.460;7.158;2023-08-24T01:51:34;22.20;56.00
13569;DHT22;6856;51.460;7.158;2023-08-24T01:54:09;22.10;56.10
13569;DHT22;6856;51.460;7.158;2023-08-24T01:56:43;22.10;56.00
13569;DHT22;6856;51.460;7.158;2023-08-24T01:59:19;22.10;56.20
13569;DHT22;6856;51.460;7.158;2023-08-24T02:01:53;22.10;56.20
13569;DHT22;6856;51.460;7.158;2023-08-24T02:04:27;22.10;56.20
13569;DHT22;6856;51.460;7.158;2023-08-24T02:07:01;22.10;56.30
13569;DHT22;6856;51.460;7.158;2023-08-24T02:09:35;22.00;56.20
13569;DHT22;6856;51.460;7.158;2023-08-24T02:12:09;22.00;56.20
13569;DHT22;6856;51.460;7.158;2023-08-24T02:14:45;22.00;56.20
13569;DHT22;6856;51.460;7.158;2023-08-24T02:17:19;22.00;56.30
13569;DHT22;6856;51.460;7.158;2023-08-24T02:19:53;22.00;56.20
13569;DHT22;6856;51.460;7.158;2023-08-24T02:22:28;22.00;56.40
13569;DHT22;6856;51.460;7.158;2023-08-24T02:25:03;21.90;56.30
13569;DHT22;6856;51.460;7.158;2023-08-24T02:27:38;21.90;56.50
13569;DHT22;6856;51.460;7.158;2023-08-24T02:30:15;21.90;56.50
13569;DHT22;6856;51.460;7.158;2023-08-24T02:32:49;21.90;56.50
13569;DHT22;6856;51.460;7.158;2023-08-24T02:35:25;21.60;56.40
13569;DHT22;6856;51.460;7.158;2023-08-24T02:37:59;21.90;56.50
13569;DHT22;6856;51.460;7.158;2023-08-24T02:40:33;21.80;56.60
13569;DHT22;6856;51.460;7.158;2023-08-24T02:43:07;21.80;56.60
13569;DHT22;6856;51.460;7.158;2023-08-24T02:45:44;21.80;56.60
13569;DHT22;6856;51.460;7.158;2023-08-24T02:48:18;21.80;56.70
13569;DHT22;6856;51.460;7.158;2023-08-24T02:50:52;21.80;56.60
13569;DHT22;6856;51.460;7.158;2023-08-24T02:53:27;21.70;57.30
13569;DHT22;6856;51.460;7.158;2023-08-24T02:56:00;21.70;56.70
13569;DHT22;6856;51.460;7.158;2023-08-24T02:58:34;21.70;56.70
13569;DHT22;6856;51.460;7.158;2023-08-24T03:01:12;21.70;56.80
13569;DHT22;6856;51.460;7.158;2023-08-24T03:03:46;21.70;56.70
13569;DHT22;6856;51.460;7.158;2023-08-24T03:06:20;21.70;56.70
13569;DHT22;6856;51.460;7.158;2023-08-24T03:08:55;21.70;56.70
13569;DHT22;6856;51.460;7.158;2023-08-24T03:11:29;21.60;56.80
13569;DHT22;6856;51.460;7.158;2023-08-24T03:14:03;21.60;56.90
13569;DHT22;6856;51.460;7.158;2023-08-24T03:16:40;21.60;57.00
13569;DHT22;6856;51.460;7.158;2023-08-24T03:19:14;21.60;57.00
13569;DHT22;6856;51.460;7.158;2023-08-24T03:21:50;21.60;57.00
13569;DHT22;6856;51.460;7.158;2023-08-24T03:24:24;21.60;57.10
13569;DHT22;6856;51.460;7.158;2023-08-24T03:26:58;21.60;57.10
13569;DHT22;6856;51.460;7.158;2023-08-24T03:29:32;21.50;57.10
13569;DHT22;6856;51.460;7.158;2023-08-24T03:32:08;21.60;57.30
13569;DHT22;6856;51.460;7.158;2023-08-24T03:34:41;21.50;57.10
13569;DHT22;6856;51.460;7.158;2023-08-24T03:37:15;21.50;57.30
13569;DHT22;6856;51.460;7.158;2023-08-24T03:39:50;21.50;57.40
13569;DHT22;6856;51.460;7.158;2023-08-24T03:42:24;21.50;57.40
13569;DHT22;6856;51.460;7.158;2023-08-24T03:44:59;21.50;57.40
13569;DHT22;6856;51.460;7.158;2023-08-24T03:47:35;21.50;57.60
13569;DHT22;6856;51.460;7.158;2023-08-24T03:50:09;21.50;57.50
13569;DHT22;6856;51.460;7.158;2023-08-24T03:52:46;21.50;57.60
13569;DHT22;6856;51.460;7.158;2023-08-24T03:55:20;21.50;57.60
13569;DHT22;6856;51.460;7.158;2023-08-24T03:57:55;21.50;57.70
13569;DHT22;6856;51.460;7.158;2023-08-24T04:00:30;21.50;57.80
13569;DHT22;6856;51.460;7.158;2023-08-24T04:03:06;21.50;57.80
13569;DHT22;6856;51.460;7.158;2023-08-24T04:05:41;21.50;57.90
13569;DHT22;6856;51.460;7.158;2023-08-24T04:08:15;21.50;57.90
13569;DHT22;6856;51.460;7.158;2023-08-24T04:10:49;21.50;57.90
13569;DHT22;6856;51.460;7.158;2023-08-24T04:13:23;21.50;57.90
13569;DHT22;6856;51.460;7.158;2023-08-24T04:15:58;21.50;58.00
13569;DHT22;6856;51.460;7.158;2023-08-24T04:18:37;21.50;58.00
13569;DHT22;6856;51.460;7.158;2023-08-24T04:21:12;21.50;58.10
13569;DHT22;6856;51.460;7.158;2023-08-24T04:23:46;21.50;58.10
13569;DHT22;6856;51.460;7.158;2023-08-24T04:26:20;21.50;58.10
13569;DHT22;6856;51.460;7.158;2023-08-24T04:28:57;21.50;58.20
13569;DHT22;6856;51.460;7.158;2023-08-24T04:31:32;21.50;58.20
13569;DHT22;6856;51.460;7.158;2023-08-24T04:34:08;21.50;58.30
13569;DHT22;6856;51.460;7.158;2023-08-24T04:36:44;21.60;58.40
13569;DHT22;6856;51.460;7.158;2023-08-24T04:39:18;21.50;58.40
13569;DHT22;6856;51.460;7.158;2023-08-24T04:41:52;21.60;58.40
13569;DHT22;6856;51.460;7.158;2023-08-24T04:44:26;21.50;58.60
13569;DHT22;6856;51.460;7.158;2023-08-24T04:47:00;21.60;58.60
13569;DHT22;6856;51.460;7.158;2023-08-24T04:49:36;21.60;58.60
13569;DHT22;6856;51.460;7.158;2023-08-24T04:52:10;21.60;58.70
13569;DHT22;6856;51.460;7.158;2023-08-24T04:54:44;21.60;58.70
13569;DHT22;6856;51.460;7.158;2023-08-24T04:57:19;21.60;59.00
13569;DHT22;6856;51.460;7.158;2023-08-24T04:59:57;21.60;58.90
13569;DHT22;6856;51.460;7.158;2023-08-24T05:02:31;21.60;58.80
13569;DHT22;6856;51.460;7.158;2023-08-24T05:05:09;21.60;58.90
13569;DHT22;6856;51.460;7.158;2023-08-24T05:07:43;21.60;59.00
13569;DHT22;6856;51.460;7.158;2023-08-24T05:10:17;21.60;59.00
13569;DHT22;6856;51.460;7.158;2023-08-24T05:12:52;21.60;59.00
13569;DHT22;6856;51.460;7.158;2023-08-24T05:15:26;21.60;59.10
13569;DHT22;6856;51.460;7.158;2023-08-24T05:18:00;21.70;59.10
13569;DHT22;6856;51.460;7.158;2023-08-24T05:20:36;21.70;59.00
13569;DHT22;6856;51.460;7.158;2023-08-24T05:23:10;21.70;59.10
13569;DHT22;6856;51.460;7.158;2023-08-24T05:25:44;21.60;59.00
13569;DHT22;6856;51.460;7.158;2023-08-24T05:28:20;21.70;59.10
13569;DHT22;6856;51.460;7.158;2023-08-24T05:30:55;21.70;59.10
13569;DHT22;6856;51.460;7.158;2023-08-24T05:33:31;21.70;59.20
13569;DHT22;6856;51.460;7.158;2023-08-24T05:36:07;21.70;59.20
13569;DHT22;6856;51.460;7.158;2023-08-24T05:38:41;21.70;59.10
13569;DHT22;6856;51.460;7.158;2023-08-24T05:41:34;21.70;59.30
13569;DHT22;6856;51.460;7.158;2023-08-24T05:44:09;21.70;59.20
13569;DHT22;6856;51.460;7.158;2023-08-24T05:46:46;21.70;59.30
13569;DHT22;6856;51.460;7.158;2023-08-24T05:49:22;21.70;59.50
13569;DHT22;6856;51.460;7.158;2023-08-24T05:51:58;21.70;59.10
13569;DHT22;6856;51.460;7.158;2023-08-24T05:54:31;21.70;59.20
13569;DHT22;6856;51.460;7.158;2023-08-24T05:57:05;21.70;59.30
13569;DHT22;6856;51.460;7.158;2023-08-24T05:59:41;21.70;59.40
13569;DHT22;6856;51.460;7.158;2023-08-24T06:02:14;21.70;59.30
13569;DHT22;6856;51.460;7.158;2023-08-24T06:04:50;21.70;59.40
13569;DHT22;6856;51.460;7.158;2023-08-24T06:07:25;21.80;59.20
13569;DHT22;6856;51.460;7.158;2023-08-24T06:10:00;21.80;60.30
13569;DHT22;6856;51.460;7.158;2023-08-24T06:12:34;21.80;59.60
13569;DHT22;6856;51.460;7.158;2023-08-24T06:15:09;21.80;59.50
13569;DHT22;6856;51.460;7.158;2023-08-24T06:17:45;21.80;59.60
13569;DHT22;6856;51.460;7.158;2023-08-24T06:20:21;21.80;59.70
13569;DHT22;6856;51.460;7.158;2023-08-24T06:22:56;21.80;59.60
13569;DHT22;6856;51.460;7.158;2023-08-24T06:25:30;21.80;59.70
13569;DHT22;6856;51.460;7.158;2023-08-24T06:28:05;21.90;59.90
13569;DHT22;6856;51.460;7.158;2023-08-24T06:30:41;21.90;59.90
13569;DHT22;6856;51.460;7.158;2023-08-24T06:33:17;21.90;60.30
13569;DHT22;6856;51.460;7.158;2023-08-24T06:35:51;21.90;60.40
13569;DHT22;6856;51.460;7.158;2023-08-24T06:38:27;22.00;60.60
13569;DHT22;6856;51.460;7.158;2023-08-24T06:41:02;22.00;61.00
13569;DHT22;6856;51.460;7.158;2023-08-24T06:43:37;22.00;60.70
13569;DHT22;6856;51.460;7.158;2023-08-24T06:46:11;22.10;60.90
13569;DHT22;6856;51.460;7.158;2023-08-24T06:48:45;22.10;60.80
13569;DHT22;6856;51.460;7.158;2023-08-24T06:51:20;22.10;61.10
13569;DHT22;6856;51.460;7.158;2023-08-24T06:54:01;22.20;61.50
13569;DHT22;6856;51.460;7.158;2023-08-24T06:56:35;22.20;62.00
13569;DHT22;6856;51.460;7.158;2023-08-24T06:59:09;22.20;62.20
13569;DHT22;6856;51.460;7.158;2023-08-24T07:01:46;22.30;62.40
13569;DHT22;6856;51.460;7.158;2023-08-24T07:04:20;22.40;62.80
13569;DHT22;6856;51.460;7.158;2023-08-24T07:06:55;22.40;62.90
13569;DHT22;6856;51.460;7.158;2023-08-24T07:09:32;22.50;62.80
13569;DHT22;6856;51.460;7.158;2023-08-24T07:12:09;22.60;62.70
13569;DHT22;6856;51.460;7.158;2023-08-24T07:14:43;22.70;62.50
13569;DHT22;6856;51.460;7.158;2023-08-24T07:17:17;22.80;62.60
13569;DHT22;6856;51.460;7.158;2023-08-24T07:19:51;22.90;62.70
13569;DHT22;6856;51.460;7.158;2023-08-24T07:22:28;23.00;62.60
13569;DHT22;6856;51.460;7.158;2023-08-24T07:25:06;23.10;62.40
13569;DHT22;6856;51.460;7.158;2023-08-24T07:27:42;23.20;62.60
13569;DHT22;6856;51.460;7.158;2023-08-24T07:30:17;23.40;62.60
13569;DHT22;6856;51.460;7.158;2023-08-24T07:33:04;23.50;62.10
13569;DHT22;6856;51.460;7.158;2023-08-24T07:35:41;23.60;61.90
13569;DHT22;6856;51.460;7.158;2023-08-24T07:38:17;23.70;62.60
13569;DHT22;6856;51.460;7.158;2023-08-24T07:40:53;23.80;62.70
13569;DHT22;6856;51.460;7.158;2023-08-24T07:43:27;23.90;62.40
13569;DHT22;6856;51.460;7.158;2023-08-24T07:46:01;24.00;62.20
13569;DHT22;6856;51.460;7.158;2023-08-24T07:48:39;24.20;62.10
13569;DHT22;6856;51.460;7.158;2023-08-24T07:51:13;24.30;61.80
13569;DHT22;6856;51.460;7.158;2023-08-24T07:53:49;24.40;61.80
13569;DHT22;6856;51.460;7.158;2023-08-24T07:56:26;24.50;61.80
13569;DHT22;6856;51.460;7.158;2023-08-24T07:59:00;24.70;61.60
13569;DHT22;6856;51.460;7.158;2023-08-24T08:01:34;24.70;61.50
13569;DHT22;6856;51.460;7.158;2023-08-24T08:04:08;24.90;61.10
13569;DHT22;6856;51.460;7.158;2023-08-24T08:06:42;25.00;61.00
13569;DHT22;6856;51.460;7.158;2023-08-24T08:09:17;25.10;60.40
13569;DHT22;6856;51.460;7.158;2023-08-24T08:11:56;25.30;60.70
13569;DHT22;6856;51.460;7.158;2023-08-24T08:14:30;25.30;60.50
13569;DHT22;6856;51.460;7.158;2023-08-24T08:17:05;25.50;60.30
13569;DHT22;6856;51.460;7.158;2023-08-24T08:19:40;25.60;59.80
13569;DHT22;6856;51.460;7.158;2023-08-24T08:22:15;25.70;59.80
13569;DHT22;6856;51.460;7.158;2023-08-24T08:24:49;25.80;59.70
13569;DHT22;6856;51.460;7.158;2023-08-24T08:27:25;26.00;59.90
13569;DHT22;6856;51.460;7.158;2023-08-24T08:29:59;26.10;59.40
13569;DHT22;6856;51.460;7.158;2023-08-24T08:32:33;26.20;59.60
13569;DHT22;6856;51.460;7.158;2023-08-24T08:35:08;26.30;59.30
13569;DHT22;6856;51.460;7.158;2023-08-24T08:37:42;26.50;59.20
13569;DHT22;6856;51.460;7.158;2023-08-24T08:40:17;26.60;58.20
13569;DHT22;6856;51.460;7.158;2023-08-24T08:42:53;26.70;57.80
13569;DHT22;6856;51.460;7.158;2023-08-24T08:45:29;26.90;57.90
13569;DHT22;6856;51.460;7.158;2023-08-24T08:48:04;27.00;56.80
13569;DHT22;6856;51.460;7.158;2023-08-24T08:50:41;27.10;56.70
13569;DHT22;6856;51.460;7.158;2023-08-24T08:53:15;27.20;57.00
13569;DHT22;6856;51.460;7.158;2023-08-24T08:55:51;27.30;57.30
13569;DHT22;6856;51.460;7.158;2023-08-24T08:58:28;27.40;56.80
13569;DHT22;6856;51.460;7.158;2023-08-24T09:01:03;27.50;56.30
13569;DHT22;6856;51.460;7.158;2023-08-24T09:03:39;27.60;56.10
13569;DHT22;6856;51.460;7.158;2023-08-24T09:06:15;27.70;56.10
13569;DHT22;6856;51.460;7.158;2023-08-24T09:08:49;27.80;56.20
13569;DHT22;6856;51.460;7.158;2023-08-24T09:11:26;27.90;55.50
13569;DHT22;6856;51.460;7.158;2023-08-24T09:14:03;28.00;56.00
13569;DHT22;6856;51.460;7.158;2023-08-24T09:16:39;28.20;55.30
13569;DHT22;6856;51.460;7.158;2023-08-24T09:19:15;28.30;54.90
13569;DHT22;6856;51.460;7.158;2023-08-24T09:21:49;28.40;54.90
13569;DHT22;6856;51.460;7.158;2023-08-24T09:24:29;28.50;54.80
13569;DHT22;6856;51.460;7.158;2023-08-24T09:27:15;28.60;54.50
13569;DHT22;6856;51.460;7.158;2023-08-24T09:29:52;28.70;54.50
13569;DHT22;6856;51.460;7.158;2023-08-24T09:32:28;28.80;54.70
13569;DHT22;6856;51.460;7.158;2023-08-24T09:35:08;28.90;55.10
13569;DHT22;6856;51.460;7.158;2023-08-24T09:37:42;29.10;54.40
13569;DHT22;6856;51.460;7.158;2023-08-24T09:40:24;29.20;53.90
13569;DHT22;6856;51.460;7.158;2023-08-24T09:43:02;29.30;53.70
13569;DHT22;6856;51.460;7.158;2023-08-24T09:45:47;29.40;53.60
13569;DHT22;6856;51.460;7.158;2023-08-24T09:48:23;29.50;53.60
13569;DHT22;6856;51.460;7.158;2023-08-24T09:51:04;29.50;53.60
13569;DHT22;6856;51.460;7.158;2023-08-24T09:53:40;29.60;53.40
13569;DHT22;6856;51.460;7.158;2023-08-24T09:56:16;29.70;53.60
13569;DHT22;6856;51.460;7.158;2023-08-24T09:58:51;29.70;53.40
13569;DHT22;6856;51.460;7.158;2023-08-24T10:01:32;29.80;53.30
13569;DHT22;6856;51.460;7.158;2023-08-24T10:04:07;29.90;53.00
13569;DHT22;6856;51.460;7.158;2023-08-24T10:06:45;29.90;52.90
13569;DHT22;6856;51.460;7.158;2023-08-24T10:09:25;30.00;52.40
13569;DHT22;6856;51.460;7.158;2023-08-24T10:12:04;30.00;53.00
13569;DHT22;6856;51.460;7.158;2023-08-24T10:14:50;30.10;52.20
13569;DHT22;6856;51.460;7.158;2023-08-24T10:17:33;30.20;52.60
13569;DHT22;6856;51.460;7.158;2023-08-24T10:20:10;30.30;52.60
13569;DHT22;6856;51.460;7.158;2023-08-24T10:22:47;30.30;51.80
13569;DHT22;6856;51.460;7.158;2023-08-24T10:25:24;30.40;51.90
13569;DHT22;6856;51.460;7.158;2023-08-24T10:28:00;30.40;52.00
13569;DHT22;6856;51.460;7.158;2023-08-24T10:30:38;30.50;52.00
13569;DHT22;6856;51.460;7.158;2023-08-24T10:33:15;30.60;51.90
13569;DHT22;6856;51.460;7.158;2023-08-24T10:35:51;30.60;51.70
13569;DHT22;6856;51.460;7.158;2023-08-24T10:38:27;30.70;51.90
13569;DHT22;6856;51.460;7.158;2023-08-24T10:41:03;30.80;52.00
13569;DHT22;6856;51.460;7.158;2023-08-24T10:43:39;30.80;51.90
13569;DHT22;6856;51.460;7.158;2023-08-24T10:46:14;30.90;51.50
13569;DHT22;6856;51.460;7.158;2023-08-24T10:49:03;31.00;51.10
13569;DHT22;6856;51.460;7.158;2023-08-24T10:51:43;31.00;50.80
13569;DHT22;6856;51.460;7.158;2023-08-24T10:54:30;31.00;50.90
13569;DHT22;6856;51.460;7.158;2023-08-24T10:57:04;31.10;50.40
13569;DHT22;6856;51.460;7.158;2023-08-24T10:59:38;31.10;50.40
13569;DHT22;6856;51.460;7.158;2023-08-24T11:02:23;31.10;50.30
13569;DHT22;6856;51.460;7.158;2023-08-24T11:05:06;31.20;50.30
13569;DHT22;6856;51.460;7.158;2023-08-24T11:07:48;31.20;49.80
13569;DHT22;6856;51.460;7.158;2023-08-24T11:10:25;31.20;49.30
13569;DHT22;6856;51.460;7.158;2023-08-24T11:13:07;31.20;49.40
13569;DHT22;6856;51.460;7.158;2023-08-24T11:15:42;31.30;48.60
13569;DHT22;6856;51.460;7.158;2023-08-24T11:18:22;31.30;49.10
13569;DHT22;6856;51.460;7.158;2023-08-24T11:21:00;31.30;49.30
13569;DHT22;6856;51.460;7.158;2023-08-24T11:23:35;31.40;48.90
13569;DHT22;6856;51.460;7.158;2023-08-24T11:26:11;31.30;48.50
13569;DHT22;6856;51.460;7.158;2023-08-24T11:28:45;31.40;49.10
13569;DHT22;6856;51.460;7.158;2023-08-24T11:31:19;31.40;48.40
13569;DHT22;6856;51.460;7.158;2023-08-24T11:33:54;31.40;48.30
13569;DHT22;6856;51.460;7.158;2023-08-24T11:36:30;31.40;49.00
13569;DHT22;6856;51.460;7.158;2023-08-24T11:39:04;31.40;48.00
13569;DHT22;6856;51.460;7.158;2023-08-24T11:41:39;31.40;48.50
13569;DHT22;6856;51.460;7.158;2023-08-24T11:44:13;31.40;49.10
13569;DHT22;6856;51.460;7.158;2023-08-24T11:47:00;31.50;48.80
13569;DHT22;6856;51.460;7.158;2023-08-24T11:49:33;31.50;48.80
13569;DHT22;6856;51.460;7.158;2023-08-24T11:52:11;31.40;48.50
13569;DHT22;6856;51.460;7.158;2023-08-24T11:54:51;31.40;48.00
13569;DHT22;6856;51.460;7.158;2023-08-24T11:57:24;31.40;47.80
13569;DHT22;6856;51.460;7.158;2023-08-24T12:00:00;31.40;47.80
13569;DHT22;6856;51.460;7.158;2023-08-24T12:02:35;31.30;47.80
13569;DHT22;6856;51.460;7.158;2023-08-24T12:05:21;31.30;47.80
13569;DHT22;6856;51.460;7.158;2023-08-24T12:07:57;31.20;47.60
13569;DHT22;6856;51.460;7.158;2023-08-24T12:10:32;31.20;47.70
13569;DHT22;6856;51.460;7.158;2023-08-24T12:13:08;31.10;48.00
13569;DHT22;6856;51.460;7.158;2023-08-24T12:15:45;31.10;48.00
13569;DHT22;6856;51.460;7.158;2023-08-24T12:18:19;31.10;48.00
13569;DHT22;6856;51.460;7.158;2023-08-24T12:20:53;31.00;48.10
13569;DHT22;6856;51.460;7.158;2023-08-24T12:23:29;31.00;48.60
13569;DHT22;6856;51.460;7.158;2023-08-24T12:26:03;31.00;48.20
13569;DHT22;6856;51.460;7.158;2023-08-24T12:28:40;30.90;48.20
13569;DHT22;6856;51.460;7.158;2023-08-24T12:31:14;30.90;48.50
13569;DHT22;6856;51.460;7.158;2023-08-24T12:33:59;30.90;48.40
13569;DHT22;6856;51.460;7.158;2023-08-24T12:36:38;30.90;48.70
13569;DHT22;6856;51.460;7.158;2023-08-24T12:39:14;30.90;48.80
13569;DHT22;6856;51.460;7.158;2023-08-24T12:41:48;30.90;48.40
13569;DHT22;6856;51.460;7.158;2023-08-24T12:44:22;30.90;48.60
13569;DHT22;6856;51.460;7.158;2023-08-24T12:46:56;30.90;48.50
13569;DHT22;6856;51.460;7.158;2023-08-24T12:49:30;30.80;48.80
13569;DHT22;6856;51.460;7.158;2023-08-24T12:52:04;30.80;48.70
13569;DHT22;6856;51.460;7.158;2023-08-24T12:54:39;30.80;48.50
13569;DHT22;6856;51.460;7.158;2023-08-24T12:57:13;30.80;48.40
13569;DHT22;6856;51.460;7.158;2023-08-24T12:59:47;30.70;48.70
13569;DHT22;6856;51.460;7.158;2023-08-24T13:02:25;30.70;49.40
13569;DHT22;6856;51.460;7.158;2023-08-24T13:05:09;30.60;49.00
13569;DHT22;6856;51.460;7.158;2023-08-24T13:07:44;30.60;49.40
13569;DHT22;6856;51.460;7.158;2023-08-24T13:10:19;30.50;49.40
13569;DHT22;6856;51.460;7.158;2023-08-24T13:12:53;30.50;49.90
13569;DHT22;6856;51.460;7.158;2023-08-24T13:15:30;30.40;50.00
13569;DHT22;6856;51.460;7.158;2023-08-24T13:18:04;30.30;49.90
13569;DHT22;6856;51.460;7.158;2023-08-24T13:20:39;30.30;50.50
13569;DHT22;6856;51.460;7.158;2023-08-24T13:23:15;30.20;50.80
13569;DHT22;6856;51.460;7.158;2023-08-24T13:25:52;30.20;50.90
13569;DHT22;6856;51.460;7.158;2023-08-24T13:28:28;30.10;50.90
13569;DHT22;6856;51.460;7.158;2023-08-24T13:31:01;30.10;50.60
13569;DHT22;6856;51.460;7.158;2023-08-24T13:33:36;30.00;50.80
13569;DHT22;6856;51.460;7.158;2023-08-24T13:36:11;30.10;50.50
13569;DHT22;6856;51.460;7.158;2023-08-24T13:38:45;30.00;51.00
13569;DHT22;6856;51.460;7.158;2023-08-24T13:41:21;30.00;50.90
13569;DHT22;6856;51.460;7.158;2023-08-24T13:43:54;30.00;50.80
13569;DHT22;6856;51.460;7.158;2023-08-24T13:46:28;30.00;50.90
13569;DHT22;6856;51.460;7.158;2023-08-24T13:49:02;30.10;50.90
13569;DHT22;6856;51.460;7.158;2023-08-24T13:51:36;30.10;50.60
13569;DHT22;6856;51.460;7.158;2023-08-24T13:54:13;30.10;51.10
13569;DHT22;6856;51.460;7.158;2023-08-24T13:56:49;30.10;50.90
13569;DHT22;6856;51.460;7.158;2023-08-24T13:59:26;30.10;50.80
13569;DHT22;6856;51.460;7.158;2023-08-24T14:02:01;30.00;51.20
13569;DHT22;6856;51.460;7.158;2023-08-24T14:04:37;30.00;50.30
13569;DHT22;6856;51.460;7.158;2023-08-24T14:07:11;30.00;50.00
13569;DHT22;6856;51.460;7.158;2023-08-24T14:09:46;30.00;50.00
13569;DHT22;6856;51.460;7.158;2023-08-24T14:12:38;30.00;50.20
13569;DHT22;6856;51.460;7.158;2023-08-24T14:15:12;30.00;50.40
13569;DHT22;6856;51.460;7.158;2023-08-24T14:17:46;30.00;50.40
13569;DHT22;6856;51.460;7.158;2023-08-24T14:20:21;29.90;50.40
13569;DHT22;6856;51.460;7.158;2023-08-24T14:22:55;29.90;50.30
13569;DHT22;6856;51.460;7.158;2023-08-24T14:25:29;29.90;50.20
13569;DHT22;6856;51.460;7.158;2023-08-24T14:28:06;29.90;49.90
13569;DHT22;6856;51.460;7.158;2023-08-24T14:30:42;29.90;49.80
13569;DHT22;6856;51.460;7.158;2023-08-24T14:33:16;29.80;49.50
13569;DHT22;6856;51.460;7.158;2023-08-24T14:35:51;29.80;49.80
13569;DHT22;6856;51.460;7.158;2023-08-24T14:38:28;29.80;50.10
13569;DHT22;6856;51.460;7.158;2023-08-24T14:41:02;29.80;50.30
13569;DHT22;6856;51.460;7.158;2023-08-24T14:43:37;29.80;50.60
13569;DHT22;6856;51.460;7.158;2023-08-24T14:46:12;29.70;50.90
13569;DHT22;6856;51.460;7.158;2023-08-24T14:48:48;29.70;51.10
13569;DHT22;6856;51.460;7.158;2023-08-24T14:51:22;29.70;51.20
13569;DHT22;6856;51.460;7.158;2023-08-24T14:53:55;29.70;51.40
13569;DHT22;6856;51.460;7.158;2023-08-24T14:56:29;29.60;51.60
13569;DHT22;6856;51.460;7.158;2023-08-24T14:59:07;29.60;51.60
13569;DHT22;6856;51.460;7.158;2023-08-24T15:01:41;29.60;51.90
13569;DHT22;6856;51.460;7.158;2023-08-24T15:04:17;29.60;51.90
13569;DHT22;6856;51.460;7.158;2023-08-24T15:06:51;29.50;52.00
13569;DHT22;6856;51.460;7.158;2023-08-24T15:09:26;29.50;52.40
13569;DHT22;6856;51.460;7.158;2023-08-24T15:12:00;29.40;52.40
13569;DHT22;6856;51.460;7.158;2023-08-24T15:14:37;29.40;52.50
13569;DHT22;6856;51.460;7.158;2023-08-24T15:17:30;29.30;52.60
13569;DHT22;6856;51.460;7.158;2023-08-24T15:20:06;29.30;52.80
13569;DHT22;6856;51.460;7.158;2023-08-24T15:22:41;29.30;53.00
13569;DHT22;6856;51.460;7.158;2023-08-24T15:25:15;29.20;52.90
13569;DHT22;6856;51.460;7.158;2023-08-24T15:27:49;29.20;53.20
13569;DHT22;6856;51.460;7.158;2023-08-24T15:30:26;29.10;53.00
13569;DHT22;6856;51.460;7.158;2023-08-24T15:33:00;29.00;52.70
13569;DHT22;6856;51.460;7.158;2023-08-24T15:35:34;29.00;52.60
13569;DHT22;6856;51.460;7.158;2023-08-24T15:38:09;28.90;52.60
13569;DHT22;6856;51.460;7.158;2023-08-24T15:40:51;28.80;52.70
13569;DHT22;6856;51.460;7.158;2023-08-24T15:43:26;28.80;53.30
13569;DHT22;6856;51.460;7.158;2023-08-24T15:46:01;28.70;53.00
13569;DHT22;6856;51.460;7.158;2023-08-24T15:48:36;28.70;53.40
13569;DHT22;6856;51.460;7.158;2023-08-24T15:51:11;28.60;53.50
13569;DHT22;6856;51.460;7.158;2023-08-24T15:53:47;28.60;53.60
13569;DHT22;6856;51.460;7.158;2023-08-24T15:56:21;28.50;53.60
13569;DHT22;6856;51.460;7.158;2023-08-24T15:58:55;28.40;53.70
13569;DHT22;6856;51.460;7.158;2023-08-24T16:01:31;28.40;53.90
13569;DHT22;6856;51.460;7.158;2023-08-24T16:04:06;28.30;53.80
13569;DHT22;6856;51.460;7.158;2023-08-24T16:06:40;28.20;53.80
13569;DHT22;6856;51.460;7.158;2023-08-24T16:09:14;28.20;54.20
13569;DHT22;6856;51.460;7.158;2023-08-24T16:11:49;28.10;54.30
13569;DHT22;6856;51.460;7.158;2023-08-24T16:14:24;28.10;54.50
13569;DHT22;6856;51.460;7.158;2023-08-24T16:17:02;28.00;54.50
13569;DHT22;6856;51.460;7.158;2023-08-24T16:19:36;27.90;54.60
13569;DHT22;6856;51.460;7.158;2023-08-24T16:22:10;27.80;54.60
13569;DHT22;6856;51.460;7.158;2023-08-24T16:24:47;27.80;54.90
13569;DHT22;6856;51.460;7.158;2023-08-24T16:27:21;27.70;54.90
13569;DHT22;6856;51.460;7.158;2023-08-24T16:29:55;27.60;55.00
13569;DHT22;6856;51.460;7.158;2023-08-24T16:32:31;27.50;55.10
13569;DHT22;6856;51.460;7.158;2023-08-24T16:35:06;27.50;55.20
13569;DHT22;6856;51.460;7.158;2023-08-24T16:37:42;27.50;55.30
13569;DHT22;6856;51.460;7.158;2023-08-24T16:40:18;27.40;55.40